KPUC/PUC METAR and TAF weather

Enter ICAO airport designator
Station Type Date Time Source
KPUC METAR 2020/01/18 12:53 UTC NOAA

KPUC 181253Z AUTO 03003KT 10SM BKN100 BKN120 M07/M11 A3035 RMK AO2 SLP342 T10721111


Station Type Date Time Source
KPUC Decoded METAR 2020/01/18 12:53 UTC NOAA

PRICE CARBON COUNTY AIRPORT, UT, United States (KPUC) 39-37N 110-45W 2091M
Jan 18, 2020 - 07:53 AM EST / 2020.01.18 1253 UTC
Wind: from the NNE (030 degrees) at 3 MPH (3 KT):0
Visibility: 10 mile(s):0
Sky conditions: mostly cloudy
Temperature: 19.0 F (-7.2 C)
Dew Point: 12.0 F (-11.1 C)
Relative Humidity: 73%
Pressure (altimeter): 30.35 in. Hg (1027 hPa)
ob: KPUC 181253Z AUTO 03003KT 10SM BKN100 BKN120 M07/M11 A3035 RMK AO2 SLP342 T10721111
cycle: 13

Station Type Date Time Source
KPUC TAF UTC NOAA

Error!

Example: see airport list